createdAt,value
2023-02-04T00:00:11.474Z,2.67
2023-02-04T00:02:38.844Z,1.83
2023-02-04T00:05:06.239Z,1.80
2023-02-04T00:07:33.584Z,2.63
2023-02-04T00:10:00.837Z,2.17
2023-02-04T00:12:28.108Z,2.15
2023-02-04T00:14:55.308Z,2.88
2023-02-04T00:17:22.446Z,1.50
2023-02-04T00:19:49.609Z,2.13
2023-02-04T00:22:16.762Z,2.10
2023-02-04T00:24:48.477Z,2.85
2023-02-04T00:27:15.639Z,1.13
2023-02-04T00:29:42.836Z,1.52
2023-02-04T00:32:10.102Z,2.90
2023-02-04T00:34:37.385Z,1.25
2023-02-04T00:37:04.520Z,2.42
2023-02-04T00:39:31.665Z,1.73
2023-02-04T00:41:58.782Z,3.88
2023-02-04T00:44:25.994Z,2.35
2023-02-04T00:46:53.146Z,1.80
2023-02-04T00:49:20.287Z,2.92
2023-02-04T00:51:47.487Z,1.73
2023-02-04T00:54:16.030Z,1.60
2023-02-04T00:56:43.600Z,1.90
2023-02-04T00:59:10.857Z,1.45
2023-02-04T01:01:38.183Z,3.05
2023-02-04T01:04:05.595Z,1.70
2023-02-04T01:06:32.969Z,2.35
2023-02-04T01:09:01.387Z,2.13
2023-02-04T01:11:29.166Z,1.90
2023-02-04T01:13:56.744Z,1.92
2023-02-04T01:16:23.953Z,1.85
2023-02-04T01:18:51.530Z,2.22
2023-02-04T01:21:18.676Z,1.08
2023-02-04T01:23:45.829Z,1.85
2023-02-04T01:26:13.002Z,1.58
2023-02-04T01:28:40.141Z,1.10
2023-02-04T01:31:07.382Z,0.85
2023-02-04T01:33:34.546Z,1.10
2023-02-04T01:36:01.714Z,1.10
2023-02-04T01:38:28.877Z,1.42
2023-02-04T01:40:56.885Z,1.88
2023-02-04T01:43:24.559Z,5.57
2023-02-04T01:45:52.086Z,1.08
2023-02-04T01:48:21.184Z,2.55
2023-02-04T01:50:49.082Z,1.40
2023-02-04T01:53:19.095Z,4.95
2023-02-04T01:55:46.357Z,1.80
2023-02-04T01:58:14.263Z,3.35
2023-02-04T02:00:41.411Z,2.03
2023-02-04T02:03:10.933Z,5.32
2023-02-04T02:05:38.068Z,5.53
2023-02-04T02:08:06.001Z,3.08
2023-02-04T02:10:33.722Z,4.45
2023-02-04T02:13:00.965Z,6.45
2023-02-04T02:15:28.157Z,2.47
2023-02-04T02:17:55.954Z,6.38
2023-02-04T02:20:23.946Z,1.48
2023-02-04T02:23:00.322Z,2.08
2023-02-04T02:25:27.562Z,2.72
2023-02-04T02:27:55.333Z,2.63
2023-02-04T02:30:22.970Z,3.38
2023-02-04T02:32:51.502Z,4.28
2023-02-04T02:35:19.018Z,9.13
2023-02-04T02:37:46.190Z,4.10
2023-02-04T02:40:13.896Z,5.22
2023-02-04T02:42:41.391Z,4.32
2023-02-04T02:45:12.347Z,6.55
2023-02-04T02:47:39.781Z,6.57
2023-02-04T02:50:07.142Z,11.60
2023-02-04T02:52:34.303Z,4.95
2023-02-04T02:55:01.517Z,10.57
2023-02-04T02:57:28.671Z,6.50
2023-02-04T02:59:55.818Z,7.82
2023-02-04T03:02:24.757Z,9.13
2023-02-04T03:04:54.685Z,8.40
2023-02-04T03:07:22.667Z,5.75
2023-02-04T03:09:51.145Z,8.93
2023-02-04T03:12:18.282Z,12.20
2023-02-04T03:14:45.468Z,10.85
2023-02-04T03:17:12.955Z,8.20
2023-02-04T03:19:40.323Z,7.63
2023-02-04T03:22:08.569Z,10.10
2023-02-04T03:24:36.940Z,10.00
2023-02-04T03:27:04.924Z,9.07
2023-02-04T03:29:32.121Z,11.00
2023-02-04T03:32:00.112Z,9.98
2023-02-04T03:34:27.459Z,15.52
2023-02-04T03:36:54.819Z,8.93
2023-02-04T03:39:22.022Z,17.23
2023-02-04T03:41:49.199Z,9.32
2023-02-04T03:44:16.378Z,12.15
2023-02-04T03:46:43.530Z,9.85
2023-02-04T03:49:10.715Z,13.25
2023-02-04T03:51:37.837Z,10.50
2023-02-04T03:54:05.055Z,15.43
2023-02-04T03:56:32.223Z,11.10
2023-02-04T03:58:59.378Z,10.00
2023-02-04T04:01:26.551Z,8.85
2023-02-04T04:03:53.862Z,12.07
2023-02-04T04:06:21.020Z,14.75
2023-02-04T04:08:48.137Z,9.27
2023-02-04T04:11:15.463Z,9.38
2023-02-04T04:13:42.576Z,11.77
2023-02-04T04:16:09.729Z,9.68
2023-02-04T04:18:36.918Z,11.40
2023-02-04T04:21:04.157Z,10.07
2023-02-04T04:23:31.378Z,8.25
2023-02-04T04:25:58.526Z,13.90
2023-02-04T04:28:25.810Z,11.73
2023-02-04T04:30:53.022Z,10.40
2023-02-04T04:33:20.262Z,11.60
2023-02-04T04:35:47.496Z,12.63
2023-02-04T04:38:14.610Z,8.52
2023-02-04T04:40:41.779Z,8.73
2023-02-04T04:43:10.201Z,11.20
2023-02-04T04:45:37.363Z,11.65
2023-02-04T04:48:04.654Z,13.18
2023-02-04T04:50:32.358Z,11.85
2023-02-04T04:52:59.652Z,11.20
2023-02-04T04:55:26.849Z,13.80
2023-02-04T04:57:54.078Z,11.70
2023-02-04T05:00:21.967Z,7.47
2023-02-04T05:02:49.171Z,7.35
2023-02-04T05:05:16.361Z,6.82
2023-02-04T05:07:43.661Z,8.30
2023-02-04T05:10:10.886Z,14.00
2023-02-04T05:12:38.316Z,10.82
2023-02-04T05:15:06.054Z,17.33
2023-02-04T05:17:33.216Z,9.82
2023-02-04T05:20:00.543Z,18.02
2023-02-04T05:22:27.757Z,10.55
2023-02-04T05:24:54.914Z,5.00
2023-02-04T05:27:22.091Z,8.13
2023-02-04T05:29:49.373Z,10.70
2023-02-04T05:32:16.568Z,9.02
2023-02-04T05:34:43.757Z,11.70
2023-02-04T05:37:10.898Z,12.15
2023-02-04T05:39:38.087Z,12.32
2023-02-04T05:42:05.267Z,7.57
2023-02-04T05:44:32.403Z,14.15
2023-02-04T05:46:59.544Z,9.93
2023-02-04T05:49:26.656Z,9.65
2023-02-04T05:51:53.799Z,13.02
2023-02-04T05:54:20.953Z,8.05
2023-02-04T05:56:48.285Z,9.32
2023-02-04T05:59:15.508Z,9.35
2023-02-04T06:01:42.676Z,5.07
2023-02-04T06:04:09.976Z,10.52
2023-02-04T06:06:37.212Z,12.55
2023-02-04T06:09:04.600Z,9.73
2023-02-04T06:11:31.731Z,7.00
2023-02-04T06:13:59.176Z,7.95
2023-02-04T06:16:26.388Z,12.02
2023-02-04T06:18:53.563Z,8.90
2023-02-04T06:21:20.769Z,11.25
2023-02-04T06:23:47.894Z,7.90
2023-02-04T06:26:15.120Z,9.00
2023-02-04T06:28:42.258Z,10.15
2023-02-04T06:31:09.525Z,8.05
2023-02-04T06:33:37.402Z,14.27
2023-02-04T06:36:05.377Z,10.93
2023-02-04T06:38:32.537Z,15.75
2023-02-04T06:40:59.714Z,7.20
2023-02-04T06:43:28.072Z,8.73
2023-02-04T06:45:55.498Z,8.10
2023-02-04T06:48:22.707Z,14.25
2023-02-04T06:50:49.845Z,12.50
2023-02-04T06:53:17.024Z,12.98
2023-02-04T06:55:44.212Z,10.65
2023-02-04T06:58:11.403Z,5.30
2023-02-04T07:00:38.603Z,9.48
2023-02-04T07:03:08.208Z,7.60
2023-02-04T07:05:35.657Z,5.10
2023-02-04T07:08:02.834Z,12.07
2023-02-04T07:10:30.411Z,10.13
2023-02-04T07:12:57.816Z,12.55
2023-02-04T07:15:25.026Z,10.50
2023-02-04T07:17:52.401Z,7.15
2023-02-04T07:20:19.617Z,9.45
2023-02-04T07:22:46.718Z,15.40
2023-02-04T07:25:16.059Z,7.82
2023-02-04T07:27:43.728Z,8.68
2023-02-04T07:30:11.145Z,9.93
2023-02-04T07:32:38.324Z,10.20
2023-02-04T07:35:05.580Z,6.93
2023-02-04T07:37:32.774Z,8.50
2023-02-04T07:39:59.900Z,15.18
2023-02-04T07:42:27.019Z,10.82
2023-02-04T07:44:54.163Z,13.13
2023-02-04T07:47:21.305Z,7.95
2023-02-04T07:49:48.422Z,10.18
2023-02-04T07:52:15.592Z,11.55
2023-02-04T07:54:42.995Z,7.25
2023-02-04T07:57:10.134Z,9.13
2023-02-04T07:59:37.291Z,7.72
2023-02-04T08:02:04.412Z,11.32
2023-02-04T08:04:31.660Z,11.18
2023-02-04T08:06:58.799Z,7.88
2023-02-04T08:09:27.177Z,8.45
2023-02-04T08:11:54.410Z,12.32
2023-02-04T08:14:21.701Z,10.18
2023-02-04T08:16:48.832Z,6.60
2023-02-04T08:19:19.080Z,6.00
2023-02-04T08:21:46.538Z,8.23
2023-02-04T08:24:13.957Z,12.50
2023-02-04T08:26:44.449Z,6.13
2023-02-04T08:29:11.637Z,7.45
2023-02-04T08:31:39.121Z,7.40
2023-02-04T08:34:06.826Z,10.25
2023-02-04T08:36:34.170Z,10.63
2023-02-04T08:39:01.474Z,7.88
2023-02-04T08:41:28.610Z,9.55
2023-02-04T08:43:55.844Z,7.85
2023-02-04T08:46:23.089Z,9.90
2023-02-04T08:48:50.283Z,8.70
2023-02-04T08:51:17.468Z,10.43
2023-02-04T08:53:44.600Z,6.22
2023-02-04T08:56:16.564Z,9.95
2023-02-04T08:58:44.219Z,13.73
2023-02-04T09:01:12.152Z,13.43
2023-02-04T09:03:39.632Z,7.85
2023-02-04T09:06:07.492Z,6.55
2023-02-04T09:08:34.632Z,9.23
2023-02-04T09:11:01.987Z,10.98
2023-02-04T09:13:29.255Z,8.02
2023-02-04T09:15:56.398Z,6.57
2023-02-04T09:18:25.368Z,11.73
2023-02-04T09:20:53.431Z,10.70
2023-02-04T09:23:20.701Z,7.63
2023-02-04T09:25:48.468Z,6.30
2023-02-04T09:28:17.185Z,7.55
2023-02-04T09:30:45.721Z,6.22
2023-02-04T09:33:13.529Z,6.45
2023-02-04T09:35:40.784Z,8.73
2023-02-04T09:38:07.958Z,10.88
2023-02-04T09:40:37.298Z,9.43
2023-02-04T09:43:06.952Z,8.07
2023-02-04T09:45:35.439Z,9.85
2023-02-04T09:48:06.432Z,6.85
2023-02-04T09:50:34.500Z,8.07
2023-02-04T09:53:03.883Z,4.47
2023-02-04T09:55:32.859Z,11.27
2023-02-04T09:58:00.543Z,12.35
2023-02-04T10:00:29.304Z,7.68
2023-02-04T10:03:00.007Z,9.45
2023-02-04T10:05:31.260Z,10.13
2023-02-04T10:07:59.134Z,9.32
2023-02-04T10:10:27.784Z,8.10
2023-02-04T10:12:57.878Z,10.40
2023-02-04T10:15:25.088Z,12.30
2023-02-04T10:17:54.652Z,10.38
2023-02-04T10:20:23.494Z,8.25
2023-02-04T10:22:52.232Z,10.43
2023-02-04T10:25:20.656Z,2.03
2023-02-04T10:27:59.020Z,1.80
2023-02-04T10:30:33.633Z,2.35
2023-02-04T10:35:28.164Z,5.30
2023-02-04T10:38:08.880Z,1.52
2023-02-04T10:40:37.206Z,2.20
2023-02-04T10:43:18.719Z,1.45
2023-02-04T10:46:06.190Z,2.88
2023-02-04T10:48:40.610Z,1.50
2023-02-04T10:51:10.635Z,2.42
2023-02-04T10:53:56.855Z,3.50
2023-02-04T10:56:24.083Z,6.38
2023-02-04T10:58:51.260Z,2.17
2023-02-04T11:01:18.518Z,3.55
2023-02-04T11:03:48.053Z,3.75
2023-02-04T11:06:18.810Z,6.05
2023-02-04T11:08:46.073Z,2.70
2023-02-04T11:11:18.226Z,2.47
2023-02-04T11:13:47.024Z,1.73
2023-02-04T11:16:14.332Z,3.50
2023-02-04T11:18:52.350Z,4.07
2023-02-04T11:21:45.786Z,1.88
2023-02-04T11:24:13.866Z,3.85
2023-02-04T11:26:41.042Z,1.58
2023-02-04T11:29:17.172Z,2.33
2023-02-04T11:31:44.544Z,3.90
2023-02-04T11:34:12.295Z,3.17
2023-02-04T11:36:56.838Z,2.13
2023-02-04T11:39:24.892Z,3.27
2023-02-04T11:41:52.063Z,1.98
2023-02-04T11:44:19.291Z,2.33
2023-02-04T11:46:50.945Z,4.07
2023-02-04T11:49:19.664Z,2.58
2023-02-04T11:51:47.205Z,3.03
2023-02-04T11:54:17.893Z,3.38
2023-02-04T11:56:45.401Z,2.05
2023-02-04T11:59:13.124Z,1.65
2023-02-04T12:01:40.583Z,1.88
2023-02-04T12:04:22.751Z,1.10
2023-02-04T12:07:03.659Z,3.08
2023-02-04T12:09:31.651Z,2.30
2023-02-04T12:12:00.807Z,3.63
2023-02-04T12:14:35.048Z,1.60
2023-02-04T12:17:02.319Z,3.15
2023-02-04T12:19:29.485Z,5.40
2023-02-04T12:21:56.666Z,1.63
2023-02-04T12:24:23.828Z,2.28
2023-02-04T12:26:51.712Z,2.60
2023-02-04T12:29:18.939Z,4.53
2023-02-04T12:31:46.172Z,1.50
2023-02-04T12:34:13.394Z,2.05
2023-02-04T12:36:40.545Z,2.00
2023-02-04T12:39:07.717Z,2.90
2023-02-04T12:41:34.864Z,3.05
2023-02-04T12:44:02.697Z,2.25
2023-02-04T12:46:30.325Z,4.70
2023-02-04T12:48:57.536Z,3.28
2023-02-04T12:51:24.758Z,1.60
2023-02-04T12:53:52.866Z,3.97
2023-02-04T12:56:24.222Z,5.45
2023-02-04T12:58:51.370Z,4.35
2023-02-04T13:01:18.874Z,2.78
2023-02-04T13:03:46.107Z,4.63
2023-02-04T13:06:13.421Z,2.25
2023-02-04T13:08:40.690Z,1.80
2023-02-04T13:11:07.849Z,3.97
2023-02-04T13:13:35.056Z,2.70
2023-02-04T13:16:02.344Z,1.92
2023-02-04T13:18:29.571Z,3.60
2023-02-04T13:20:56.816Z,4.07
2023-02-04T13:23:23.974Z,4.68
2023-02-04T13:25:51.234Z,6.15
2023-02-04T13:28:18.505Z,2.85
2023-02-04T13:30:45.732Z,2.40
2023-02-04T13:33:13.144Z,3.10
2023-02-04T13:35:40.884Z,5.60
2023-02-04T13:38:08.167Z,1.80
2023-02-04T13:40:35.334Z,2.15
2023-02-04T13:43:02.460Z,2.10
2023-02-04T13:45:29.714Z,1.73
2023-02-04T13:47:56.994Z,3.28
2023-02-04T13:50:24.236Z,6.43
2023-02-04T13:52:51.410Z,4.38
2023-02-04T13:55:18.700Z,2.17
2023-02-04T13:57:45.849Z,2.30
2023-02-04T14:00:13.287Z,1.10
2023-02-04T14:02:40.610Z,2.65
2023-02-04T14:05:07.830Z,3.03
2023-02-04T14:07:35.081Z,5.80
2023-02-04T14:10:02.203Z,1.27
2023-02-04T14:12:29.385Z,3.47
2023-02-04T14:14:56.606Z,1.13
2023-02-04T14:17:23.777Z,4.40
2023-02-04T14:19:51.006Z,1.85
2023-02-04T14:22:18.521Z,1.73
2023-02-04T14:24:47.537Z,4.75
2023-02-04T14:27:14.658Z,2.38
2023-02-04T14:29:41.869Z,1.77
2023-02-04T14:32:08.997Z,2.40
2023-02-04T14:34:36.216Z,1.30
2023-02-04T14:37:03.353Z,3.20
2023-02-04T14:39:30.492Z,2.33
2023-02-04T14:41:57.711Z,1.45
2023-02-04T14:44:24.905Z,1.20
2023-02-04T14:46:52.119Z,3.35
2023-02-04T14:49:19.225Z,1.42
2023-02-04T14:51:46.566Z,2.47
2023-02-04T14:54:14.735Z,1.42
2023-02-04T14:56:41.982Z,1.30
2023-02-04T14:59:09.835Z,1.77
2023-02-04T15:01:37.015Z,1.92
2023-02-04T15:04:04.255Z,1.85
2023-02-04T15:06:31.376Z,1.55
2023-02-04T15:08:58.533Z,2.08
2023-02-04T15:11:25.748Z,2.17
2023-02-04T15:13:52.896Z,1.00
2023-02-04T15:16:20.449Z,2.47
2023-02-04T15:18:47.812Z,0.90
2023-02-04T15:21:15.005Z,1.63
2023-02-04T15:23:44.140Z,2.55
2023-02-04T15:26:11.521Z,2.08
2023-02-04T15:28:38.676Z,2.00
2023-02-04T15:31:06.254Z,1.40
2023-02-04T15:33:33.482Z,4.07
2023-02-04T15:36:00.639Z,1.50
2023-02-04T15:38:27.799Z,4.15
2023-02-04T15:40:54.933Z,2.78
2023-02-04T15:43:22.148Z,1.55
2023-02-04T15:45:49.349Z,1.45
2023-02-04T15:48:17.505Z,3.83
2023-02-04T15:50:44.652Z,2.97
2023-02-04T15:53:12.819Z,7.05
2023-02-04T15:55:39.965Z,2.33
2023-02-04T15:58:07.089Z,2.13
2023-02-04T16:00:34.560Z,2.40
2023-02-04T16:03:02.055Z,2.80
2023-02-04T16:05:29.226Z,2.15
2023-02-04T16:07:56.375Z,1.58
2023-02-04T16:10:23.800Z,2.38
2023-02-04T16:12:52.365Z,1.80
2023-02-04T16:15:19.548Z,2.00
2023-02-04T16:17:46.738Z,2.10
2023-02-04T16:20:14.246Z,2.63
2023-02-04T16:22:41.454Z,2.85
2023-02-04T16:25:08.686Z,1.85
2023-02-04T16:27:36.075Z,1.50
2023-02-04T16:30:03.372Z,3.55
2023-02-04T16:32:33.556Z,3.60
2023-02-04T16:35:02.398Z,2.47
2023-02-04T16:37:29.648Z,2.22
2023-02-04T16:39:56.901Z,2.90
2023-02-04T16:42:24.157Z,3.17
2023-02-04T16:44:51.313Z,2.30
2023-02-04T16:47:18.517Z,2.38
2023-02-04T16:49:45.957Z,4.68
2023-02-04T16:52:13.120Z,12.68
2023-02-04T16:54:40.321Z,3.85
2023-02-04T16:57:07.447Z,5.75
2023-02-04T16:59:35.738Z,2.80
2023-02-04T17:02:03.045Z,3.03
2023-02-04T17:04:32.361Z,2.55
2023-02-04T17:07:00.503Z,4.22
2023-02-04T17:09:28.013Z,3.90
2023-02-04T17:11:55.377Z,1.92
2023-02-04T17:14:24.772Z,1.60
2023-02-04T17:16:52.385Z,3.10
2023-02-04T17:19:21.213Z,1.98
2023-02-04T17:21:49.018Z,2.08
2023-02-04T17:24:16.222Z,2.17
2023-02-04T17:26:43.406Z,2.75
2023-02-04T17:29:15.270Z,2.50
2023-02-04T17:31:45.363Z,4.13
2023-02-04T17:34:12.606Z,3.25
2023-02-04T17:36:39.826Z,3.33
2023-02-04T17:39:07.644Z,4.57
2023-02-04T17:41:34.886Z,5.40
2023-02-04T17:44:03.276Z,4.78
2023-02-04T17:46:31.352Z,2.95
2023-02-04T17:48:58.953Z,3.17
2023-02-04T17:51:26.141Z,5.68
2023-02-04T17:53:53.385Z,5.00
2023-02-04T17:56:21.477Z,4.13
2023-02-04T17:58:49.478Z,4.03
2023-02-04T18:01:18.881Z,4.03
2023-02-04T18:03:46.607Z,3.67
2023-02-04T18:06:34.182Z,3.67
2023-02-04T18:09:02.069Z,5.55
2023-02-04T18:11:36.264Z,3.97
2023-02-04T18:14:11.136Z,2.40
2023-02-04T18:19:28.958Z,3.15
2023-02-04T18:21:56.250Z,3.40
2023-02-04T18:24:27.306Z,2.67
2023-02-04T18:26:55.513Z,2.85
2023-02-04T18:29:32.892Z,4.63
2023-02-04T18:32:06.164Z,3.45
2023-02-04T18:34:36.451Z,2.72
2023-02-04T18:37:22.629Z,3.05
2023-02-04T18:39:49.801Z,3.08
2023-02-04T18:42:21.379Z,3.60
2023-02-04T18:44:49.058Z,2.85
2023-02-04T18:47:26.896Z,2.33
2023-02-04T18:49:54.124Z,3.88
2023-02-04T18:52:22.224Z,2.55
2023-02-04T18:54:53.183Z,2.92
2023-02-04T18:57:39.706Z,3.38
2023-02-04T19:00:09.951Z,3.08
2023-02-04T19:02:39.471Z,2.65
2023-02-04T19:05:25.671Z,3.15
2023-02-04T19:08:17.883Z,5.20
2023-02-04T19:10:45.114Z,2.47
2023-02-04T19:13:25.850Z,3.08
2023-02-04T19:15:58.997Z,3.72
2023-02-04T19:18:31.276Z,1.98
2023-02-04T19:21:08.122Z,3.08
2023-02-04T19:23:37.748Z,4.40
2023-02-04T19:26:22.719Z,3.08
2023-02-04T19:28:51.302Z,3.22
2023-02-04T19:31:18.607Z,3.03
2023-02-04T19:33:45.890Z,3.30
2023-02-04T19:36:16.266Z,3.28
2023-02-04T19:38:45.943Z,3.65
2023-02-04T19:41:22.027Z,3.78
2023-02-04T19:43:49.376Z,5.15
2023-02-04T19:46:20.620Z,4.55
2023-02-04T19:48:48.022Z,6.30
2023-02-04T19:51:19.108Z,7.32
2023-02-04T19:53:51.497Z,6.05
2023-02-04T19:56:38.519Z,6.68
2023-02-04T19:59:24.651Z,5.95
2023-02-04T20:01:57.940Z,5.68
2023-02-04T20:04:25.061Z,5.35
2023-02-04T20:06:52.275Z,5.38
2023-02-04T20:09:22.626Z,4.07
2023-02-04T20:11:53.446Z,3.90
2023-02-04T20:14:22.458Z,3.85
2023-02-04T20:16:49.675Z,4.18
2023-02-04T20:19:26.511Z,6.85
2023-02-04T20:22:12.653Z,4.40
2023-02-04T20:24:41.475Z,8.27
2023-02-04T20:27:28.807Z,4.20
2023-02-04T20:30:17.975Z,5.35
2023-02-04T20:32:48.593Z,4.20
2023-02-04T20:35:15.724Z,3.63
2023-02-04T20:37:43.459Z,4.38
2023-02-04T20:40:29.637Z,5.13
2023-02-04T20:43:15.597Z,4.93
2023-02-04T20:45:54.697Z,7.22
2023-02-04T20:48:31.480Z,5.35
2023-02-04T20:51:01.361Z,5.20
2023-02-04T20:53:29.620Z,5.22
2023-02-04T20:56:04.048Z,5.68
2023-02-04T20:58:35.502Z,5.13
2023-02-04T21:01:02.735Z,3.97
2023-02-04T21:03:37.161Z,4.72
2023-02-04T21:06:21.875Z,7.30
2023-02-04T21:08:50.165Z,5.80
2023-02-04T21:11:17.507Z,5.28
2023-02-04T21:13:44.849Z,8.82
2023-02-04T21:16:12.204Z,8.57
2023-02-04T21:18:39.709Z,5.05
2023-02-04T21:21:08.369Z,8.05
2023-02-04T21:23:38.852Z,3.85
2023-02-04T21:26:06.478Z,8.20
2023-02-04T21:28:34.087Z,4.85
2023-02-04T21:31:01.688Z,3.20
2023-02-04T21:33:29.002Z,3.35
2023-02-04T21:35:56.221Z,4.88
2023-02-04T21:38:23.453Z,5.38
2023-02-04T21:40:50.675Z,4.32
2023-02-04T21:43:17.874Z,5.70
2023-02-04T21:45:45.065Z,4.35
2023-02-04T21:48:12.358Z,2.50
2023-02-04T21:50:39.637Z,4.20
2023-02-04T21:53:08.146Z,7.60
2023-02-04T21:55:35.710Z,4.00
2023-02-04T21:58:03.131Z,4.43
2023-02-04T22:00:30.363Z,5.85
2023-02-04T22:02:57.474Z,3.90
2023-02-04T22:05:24.788Z,4.90
2023-02-04T22:07:52.014Z,5.30
2023-02-04T22:10:20.811Z,4.88
2023-02-04T22:12:48.098Z,4.35
2023-02-04T22:15:15.750Z,4.18
2023-02-04T22:17:42.865Z,3.58
2023-02-04T22:20:10.447Z,5.88
2023-02-04T22:22:37.637Z,4.93
2023-02-04T22:25:04.853Z,6.47
2023-02-04T22:27:32.037Z,4.43
2023-02-04T22:30:02.330Z,3.28
2023-02-04T22:32:30.144Z,4.28
2023-02-04T22:34:57.303Z,5.53
2023-02-04T22:37:24.843Z,5.60
2023-02-04T22:39:52.018Z,2.63
2023-02-04T22:42:19.265Z,4.68
2023-02-04T22:44:46.665Z,2.60
2023-02-04T22:47:13.880Z,2.42
2023-02-04T22:49:41.195Z,4.13
2023-02-04T22:52:08.409Z,2.88
2023-02-04T22:54:37.139Z,2.85
2023-02-04T22:57:04.702Z,3.00
2023-02-04T22:59:31.914Z,3.67
2023-02-04T23:01:59.101Z,2.63
2023-02-04T23:04:26.490Z,3.80
2023-02-04T23:06:53.849Z,3.22
2023-02-04T23:09:21.432Z,4.25
2023-02-04T23:11:49.606Z,3.80
2023-02-04T23:14:16.781Z,3.47
2023-02-04T23:16:44.060Z,4.85
2023-02-04T23:19:11.216Z,3.50
2023-02-04T23:21:38.672Z,2.30
2023-02-04T23:24:05.974Z,3.42
2023-02-04T23:26:33.149Z,4.03
2023-02-04T23:29:01.102Z,4.22
2023-02-04T23:31:28.765Z,3.28
2023-02-04T23:33:56.009Z,5.72
2023-02-04T23:36:23.268Z,3.83
2023-02-04T23:38:50.413Z,3.55
2023-02-04T23:41:17.571Z,3.70
2023-02-04T23:43:45.194Z,4.30
2023-02-04T23:46:12.465Z,6.07
2023-02-04T23:48:40.094Z,3.90
2023-02-04T23:51:07.268Z,4.22
2023-02-04T23:53:34.437Z,5.53
2023-02-04T23:56:01.665Z,3.75
2023-02-04T23:58:28.865Z,3.78
